createdAt,value
2022-10-12T00:00:19.136Z,100083.64
2022-10-12T00:02:45.728Z,100083.88
2022-10-12T00:05:12.644Z,100084.66
2022-10-12T00:07:40.075Z,100080.92
2022-10-12T00:10:07.329Z,100085.44
2022-10-12T00:12:34.241Z,100085.52
2022-10-12T00:15:00.914Z,100083.64
2022-10-12T00:17:27.600Z,100087.52
2022-10-12T00:19:54.445Z,100089.31
2022-10-12T00:22:21.130Z,100091.98
2022-10-12T00:24:47.859Z,100089.36
2022-10-12T00:27:14.517Z,100094.63
2022-10-12T00:29:41.249Z,100093.75
2022-10-12T00:32:07.871Z,100095.65
2022-10-12T00:34:34.750Z,100096.59
2022-10-12T00:37:01.356Z,100096.06
2022-10-12T00:39:28.098Z,100098.17
2022-10-12T00:41:54.752Z,100096.03
2022-10-12T00:44:35.263Z,100097.85
2022-10-12T00:47:05.311Z,100100.48
2022-10-12T00:49:34.395Z,100105.02
2022-10-12T00:52:03.149Z,100100.67
2022-10-12T00:54:34.869Z,100101.78
2022-10-12T00:57:02.522Z,100097.75
2022-10-12T00:59:32.471Z,100092.70
2022-10-12T01:01:59.194Z,100095.52
2022-10-12T01:04:25.875Z,100099.14
2022-10-12T01:06:52.632Z,100097.15
2022-10-12T01:09:19.905Z,100097.13
2022-10-12T01:11:46.600Z,100098.20
2022-10-12T01:14:13.276Z,100103.48
2022-10-12T01:17:04.381Z,100102.10
2022-10-12T01:19:52.649Z,100102.48
2022-10-12T01:22:23.100Z,100101.45
2022-10-12T01:24:54.305Z,100100.33
2022-10-12T01:27:23.732Z,100102.63
2022-10-12T01:30:09.791Z,100106.40
2022-10-12T01:33:00.900Z,100108.55
2022-10-12T01:35:49.305Z,100113.98
2022-10-12T01:38:50.217Z,100108.44
2022-10-12T01:41:32.698Z,100109.56
2022-10-12T01:43:59.389Z,100111.80
2022-10-12T01:46:26.026Z,100120.65
2022-10-12T01:49:00.480Z,100121.57
2022-10-12T01:52:08.598Z,100116.81
2022-10-12T01:54:43.412Z,100117.52
2022-10-12T01:57:18.202Z,100115.32
2022-10-12T01:59:52.713Z,100118.11
2022-10-12T02:02:40.739Z,100124.18
2022-10-12T02:05:07.368Z,100128.80
2022-10-12T02:07:49.359Z,100130.15
2022-10-12T02:10:27.855Z,100133.48
2022-10-12T02:12:54.719Z,100133.59
2022-10-12T02:15:21.373Z,100139.81
2022-10-12T02:17:48.383Z,100141.09
2022-10-12T02:20:16.642Z,100144.55
2022-10-12T02:22:43.294Z,100146.63
2022-10-12T02:25:11.991Z,100146.23
2022-10-12T02:27:40.188Z,100154.79
2022-10-12T02:30:07.842Z,100157.42
2022-10-12T02:32:38.599Z,100159.38
2022-10-12T02:35:09.604Z,100160.93
2022-10-12T02:37:37.395Z,100160.56
2022-10-12T02:40:11.761Z,100160.58
2022-10-12T02:43:08.324Z,100163.42
2022-10-12T02:45:26.219Z,100163.13
2022-10-12T02:47:53.535Z,100164.85
2022-10-12T02:50:20.377Z,100163.90
2022-10-12T02:52:46.964Z,100167.80
2022-10-12T02:55:13.637Z,100164.23
2022-10-12T02:57:40.455Z,100165.02
2022-10-12T03:00:07.738Z,100167.77
2022-10-12T03:02:34.395Z,100171.48
2022-10-12T03:05:01.070Z,100177.94
2022-10-12T03:07:27.834Z,100180.22
2022-10-12T03:09:54.552Z,100181.63
2022-10-12T03:12:21.217Z,100182.75
2022-10-12T03:14:47.926Z,100185.20
2022-10-12T03:17:14.579Z,100186.27
2022-10-12T03:19:41.332Z,100188.50
2022-10-12T03:22:07.938Z,100190.67
2022-10-12T03:24:34.612Z,100197.28
2022-10-12T03:27:01.306Z,100197.90
2022-10-12T03:29:28.033Z,100197.07
2022-10-12T03:31:54.611Z,100195.08
2022-10-12T03:34:21.306Z,100195.21
2022-10-12T03:36:47.962Z,100193.96
2022-10-12T03:39:14.800Z,100194.68
2022-10-12T03:41:41.383Z,100198.27
2022-10-12T03:44:08.038Z,100197.65
2022-10-12T03:46:34.730Z,100199.97
2022-10-12T03:49:01.499Z,100197.21
2022-10-12T03:51:28.103Z,100199.25
2022-10-12T03:53:54.763Z,100198.09
2022-10-12T03:56:21.433Z,100200.88
2022-10-12T03:58:48.113Z,100200.80
2022-10-12T04:01:14.889Z,100198.05
2022-10-12T04:03:41.517Z,100203.01
2022-10-12T04:06:08.246Z,100204.42
2022-10-12T04:11:24.617Z,100208.52
2022-10-12T04:13:51.317Z,100212.30
2022-10-12T04:16:18.088Z,100207.77
2022-10-12T04:18:44.752Z,100210.77
2022-10-12T04:21:13.823Z,100215.35
2022-10-12T04:23:41.261Z,100214.89
2022-10-12T04:26:08.001Z,100220.97
2022-10-12T04:28:34.714Z,100218.84
2022-10-12T04:31:01.431Z,100222.93
2022-10-12T04:33:28.253Z,100226.30
2022-10-12T04:35:54.865Z,100227.77
2022-10-12T04:38:21.576Z,100227.38
2022-10-12T04:40:48.662Z,100227.38
2022-10-12T04:43:16.036Z,100232.67
2022-10-12T04:45:42.762Z,100230.01
2022-10-12T04:48:09.460Z,100232.34
2022-10-12T04:50:36.229Z,100239.41
2022-10-12T04:53:02.912Z,100241.05
2022-10-12T04:55:29.550Z,100239.14
2022-10-12T04:57:56.360Z,100243.25
2022-10-12T05:00:23.024Z,100247.49
2022-10-12T05:02:49.750Z,100243.11
2022-10-12T05:05:16.422Z,100248.85
2022-10-12T05:07:43.163Z,100246.33
2022-10-12T05:10:10.016Z,100249.61
2022-10-12T05:12:36.967Z,100252.05
2022-10-12T05:15:04.232Z,100256.81
2022-10-12T05:17:30.999Z,100257.50
2022-10-12T05:19:57.671Z,100264.48
2022-10-12T05:22:24.370Z,100259.46
2022-10-12T05:24:53.795Z,100262.64
2022-10-12T05:27:21.106Z,100265.88
2022-10-12T05:29:47.852Z,100265.05
2022-10-12T05:32:14.611Z,100271.60
2022-10-12T05:34:42.383Z,100269.33
2022-10-12T05:37:09.234Z,100271.08
2022-10-12T05:39:37.259Z,100276.46
2022-10-12T05:42:04.043Z,100276.86
2022-10-12T05:44:30.729Z,100279.40
2022-10-12T05:46:57.457Z,100283.96
2022-10-12T05:49:24.142Z,100286.60
2022-10-12T05:51:50.875Z,100288.69
2022-10-12T05:54:17.475Z,100293.88
2022-10-12T05:56:44.131Z,100297.10
2022-10-12T05:59:11.621Z,100298.98
2022-10-12T06:01:38.426Z,100301.00
2022-10-12T06:04:06.220Z,100302.92
2022-10-12T06:06:32.961Z,100307.46
2022-10-12T06:08:59.710Z,100311.58
2022-10-12T06:11:26.375Z,100314.87
2022-10-12T06:13:54.329Z,100316.81
2022-10-12T06:16:21.152Z,100317.61
2022-10-12T06:18:47.748Z,100315.68
2022-10-12T06:21:32.906Z,100320.27
2022-10-12T06:24:00.168Z,100322.22
2022-10-12T06:26:26.891Z,100322.61
2022-10-12T06:28:53.627Z,100324.34
2022-10-12T06:31:20.751Z,100321.58
2022-10-12T06:33:47.636Z,100326.09
2022-10-12T06:36:14.354Z,100323.27
2022-10-12T06:38:41.097Z,100324.11
2022-10-12T06:41:07.705Z,100328.42
2022-10-12T06:43:34.467Z,100334.30
2022-10-12T06:46:01.849Z,100334.05
2022-10-12T06:48:28.689Z,100337.30
2022-10-12T06:50:58.457Z,100341.00
2022-10-12T06:53:28.604Z,100342.66
2022-10-12T06:55:55.322Z,100342.71
2022-10-12T06:58:22.001Z,100343.35
2022-10-12T07:00:48.943Z,100346.14
2022-10-12T07:03:16.617Z,100342.45
2022-10-12T07:05:43.434Z,100343.79
2022-10-12T07:08:10.055Z,100343.34
2022-10-12T07:10:38.075Z,100348.41
2022-10-12T07:13:04.802Z,100349.75
2022-10-12T07:15:31.461Z,100347.48
2022-10-12T07:17:58.211Z,100352.58
2022-10-12T07:20:24.884Z,100352.00
2022-10-12T07:22:52.857Z,100351.29
2022-10-12T07:25:19.540Z,100354.25
2022-10-12T07:27:49.404Z,100356.88
2022-10-12T07:30:16.269Z,100360.20
2022-10-12T07:32:44.542Z,100356.13
2022-10-12T07:35:11.337Z,100363.26
2022-10-12T07:37:38.256Z,100358.56
2022-10-12T07:40:05.756Z,100361.66
2022-10-12T07:42:32.490Z,100358.96
2022-10-12T07:44:59.137Z,100361.34
2022-10-12T07:47:25.849Z,100360.03
2022-10-12T07:49:52.457Z,100359.88
2022-10-12T07:52:19.171Z,100356.55
2022-10-12T07:54:45.968Z,100358.89
2022-10-12T07:57:12.684Z,100354.53
2022-10-12T07:59:39.338Z,100358.30
2022-10-12T08:02:06.104Z,100356.27
2022-10-12T08:04:32.887Z,100349.57
2022-10-12T08:06:59.673Z,100349.59
2022-10-12T08:09:26.411Z,100343.15
2022-10-12T08:11:53.038Z,100351.89
2022-10-12T08:14:19.782Z,100353.36
2022-10-12T08:16:46.468Z,100352.86
2022-10-12T08:19:13.457Z,100353.87
2022-10-12T08:21:41.313Z,100354.00
2022-10-12T08:24:09.097Z,100353.39
2022-10-12T08:26:36.418Z,100354.59
2022-10-12T08:29:03.758Z,100351.78
2022-10-12T08:31:30.492Z,100353.42
2022-10-12T08:33:57.574Z,100355.52
2022-10-12T08:36:24.497Z,100348.84
2022-10-12T08:38:54.068Z,100353.16
2022-10-12T08:41:48.364Z,100351.10
2022-10-12T08:44:52.651Z,100351.71
2022-10-12T08:47:30.548Z,100353.02
2022-10-12T08:49:57.232Z,100348.34
2022-10-12T08:52:29.039Z,100348.88
2022-10-12T08:54:59.059Z,100353.30
2022-10-12T08:57:25.742Z,100353.40
2022-10-12T08:59:52.456Z,100355.83
2022-10-12T09:02:38.466Z,100359.70
2022-10-12T09:05:09.866Z,100357.91
2022-10-12T09:07:46.447Z,100357.26
2022-10-12T09:10:27.878Z,100352.70
2022-10-12T09:13:00.163Z,100351.45
2022-10-12T09:15:32.631Z,100351.05
2022-10-12T09:18:00.461Z,100344.11
2022-10-12T09:20:44.270Z,100342.52
2022-10-12T09:23:27.953Z,100345.77
2022-10-12T09:25:58.536Z,100345.75
2022-10-12T09:28:40.139Z,100345.05
2022-10-12T09:31:10.043Z,100345.80
2022-10-12T09:33:42.148Z,100346.04
2022-10-12T09:36:10.168Z,100341.34
2022-10-12T09:38:38.188Z,100342.02
2022-10-12T09:41:05.159Z,100345.83
2022-10-12T09:43:31.896Z,100343.77
2022-10-12T09:46:00.072Z,100344.23
2022-10-12T09:48:26.793Z,100344.66
2022-10-12T09:51:01.475Z,100343.73
2022-10-12T09:53:36.210Z,100344.73
2022-10-12T09:56:04.982Z,100342.57
2022-10-12T09:58:39.642Z,100340.11
2022-10-12T10:01:25.429Z,100335.48
2022-10-12T10:04:14.736Z,100336.41
2022-10-12T10:06:43.788Z,100331.45
2022-10-12T10:09:32.956Z,100326.25
2022-10-12T10:12:24.215Z,100325.11
2022-10-12T10:14:51.753Z,100321.61
2022-10-12T10:17:24.697Z,100320.41
2022-10-12T10:19:51.929Z,100318.70
2022-10-12T10:22:19.531Z,100322.27
2022-10-12T10:24:50.768Z,100320.09
2022-10-12T10:27:30.063Z,100322.92
2022-10-12T10:30:29.730Z,100324.96
2022-10-12T10:33:13.550Z,100326.64
2022-10-12T10:35:40.275Z,100322.20
2022-10-12T10:38:09.253Z,100318.24
2022-10-12T10:40:36.027Z,100306.55
2022-10-12T10:43:05.338Z,100304.86
2022-10-12T10:45:52.303Z,100321.80
2022-10-12T10:48:24.134Z,100325.29
2022-10-12T10:51:02.507Z,100326.05
2022-10-12T10:53:46.811Z,100330.23
2022-10-12T10:56:21.910Z,100327.54
2022-10-12T10:58:56.312Z,100325.27
2022-10-12T11:01:56.220Z,100324.82
2022-10-12T11:04:29.402Z,100327.28
2022-10-12T11:06:58.210Z,100322.62
2022-10-12T11:09:32.396Z,100326.34
2022-10-12T11:12:14.636Z,100329.25
2022-10-12T11:14:52.495Z,100328.14
2022-10-12T11:17:25.068Z,100326.99
2022-10-12T11:20:01.008Z,100326.38
2022-10-12T11:22:36.928Z,100326.75
2022-10-12T11:25:14.673Z,100322.45
2022-10-12T11:27:42.803Z,100327.70
2022-10-12T11:30:17.052Z,100328.26
2022-10-12T11:32:49.502Z,100329.05
2022-10-12T11:35:27.634Z,100332.92
2022-10-12T11:37:58.146Z,100333.39
2022-10-12T11:43:22.656Z,100337.66
2022-10-12T11:45:51.602Z,100333.74
2022-10-12T11:48:30.141Z,100335.93
2022-10-12T11:51:00.086Z,100334.59
2022-10-12T11:53:33.431Z,100331.09
2022-10-12T11:56:09.440Z,100329.73
2022-10-12T11:58:59.274Z,100335.65
2022-10-12T12:01:39.517Z,100335.85
2022-10-12T12:04:40.545Z,100338.33
2022-10-12T12:07:06.813Z,100336.34
2022-10-12T12:09:37.603Z,100335.29
2022-10-12T12:12:18.052Z,100329.14
2022-10-12T12:14:51.333Z,100336.70
2022-10-12T12:17:31.563Z,100336.47
2022-10-12T12:20:00.412Z,100336.61
2022-10-12T12:22:27.168Z,100339.91
2022-10-12T12:24:58.275Z,100340.61
2022-10-12T12:27:48.200Z,100339.22
2022-10-12T12:30:14.950Z,100339.83
2022-10-12T12:32:47.479Z,100340.73
2022-10-12T12:35:23.266Z,100341.45
2022-10-12T12:37:50.294Z,100341.91
2022-10-12T12:40:23.239Z,100334.02
2022-10-12T12:42:50.003Z,100335.75
2022-10-12T12:45:39.102Z,100329.97
2022-10-12T12:48:09.416Z,100326.32
2022-10-12T12:50:37.415Z,100330.92
2022-10-12T12:53:14.311Z,100330.89
2022-10-12T12:55:45.916Z,100331.23
2022-10-12T12:58:50.782Z,100326.27
2022-10-12T13:01:32.793Z,100324.08
2022-10-12T13:04:20.759Z,100325.71
2022-10-12T13:07:25.962Z,100320.98
2022-10-12T13:10:01.813Z,100321.34
2022-10-12T13:12:58.872Z,100315.30
2022-10-12T13:15:46.084Z,100317.57
2022-10-12T13:18:45.386Z,100316.09
2022-10-12T13:21:06.871Z,100319.03
2022-10-12T13:23:33.691Z,100317.02
2022-10-12T13:26:08.929Z,100315.58
2022-10-12T13:28:39.291Z,100312.67
2022-10-12T13:31:09.581Z,100311.39
2022-10-12T13:33:54.567Z,100311.15
2022-10-12T13:36:26.087Z,100310.62
2022-10-12T13:38:57.345Z,100311.23
2022-10-12T13:41:25.581Z,100314.27
2022-10-12T13:43:53.445Z,100312.96
2022-10-12T13:46:46.134Z,100311.23
2022-10-12T13:49:30.177Z,100311.90
2022-10-12T13:52:40.171Z,100310.11
2022-10-12T13:55:17.889Z,100315.98
2022-10-12T13:57:50.139Z,100318.64
2022-10-12T14:00:19.447Z,100325.46
2022-10-12T14:03:02.991Z,100320.42
2022-10-12T14:05:31.276Z,100319.77
2022-10-12T14:08:19.614Z,100324.09
2022-10-12T14:10:46.348Z,100323.17
2022-10-12T14:13:22.593Z,100324.98
2022-10-12T14:15:49.303Z,100324.88
2022-10-12T14:18:35.761Z,100329.36
2022-10-12T14:21:26.818Z,100326.04
2022-10-12T14:23:58.011Z,100326.20
2022-10-12T14:26:34.997Z,100327.18
2022-10-12T14:29:44.592Z,100329.38
2022-10-12T14:32:11.287Z,100329.08
2022-10-12T14:34:39.203Z,100331.41
2022-10-12T14:37:08.809Z,100332.89
2022-10-12T14:39:35.952Z,100333.51
2022-10-12T14:42:04.668Z,100335.20
2022-10-12T14:44:42.044Z,100327.42
2022-10-12T14:47:25.028Z,100334.70
2022-10-12T14:49:53.513Z,100342.37
2022-10-12T14:52:23.004Z,100343.94
2022-10-12T14:54:51.680Z,100343.21
2022-10-12T14:57:18.909Z,100344.51
2022-10-12T14:59:46.324Z,100345.65
2022-10-12T15:02:20.390Z,100345.20
2022-10-12T15:04:47.173Z,100350.19
2022-10-12T15:07:18.135Z,100344.96
2022-10-12T15:09:45.155Z,100346.98
2022-10-12T15:12:15.662Z,100350.08
2022-10-12T15:14:42.563Z,100348.98
2022-10-12T15:17:11.672Z,100351.27
2022-10-12T15:19:38.643Z,100353.05
2022-10-12T15:22:05.305Z,100354.10
2022-10-12T15:24:32.056Z,100356.11
2022-10-12T15:26:58.682Z,100355.97
2022-10-12T15:29:25.363Z,100357.73
2022-10-12T15:31:52.949Z,100357.05
2022-10-12T15:34:19.774Z,100361.07
2022-10-12T15:36:46.517Z,100353.70
2022-10-12T15:39:13.104Z,100360.17
2022-10-12T15:41:39.790Z,100364.00
2022-10-12T15:44:06.376Z,100367.85
2022-10-12T15:46:33.031Z,100366.93
2022-10-12T15:48:59.726Z,100366.19
2022-10-12T15:51:26.355Z,100365.59
2022-10-12T15:53:53.316Z,100369.83
2022-10-12T15:56:20.260Z,100370.79
2022-10-12T15:58:47.134Z,100368.39
2022-10-12T16:01:14.831Z,100370.84
2022-10-12T16:03:41.737Z,100372.11
2022-10-12T16:06:08.750Z,100376.77
2022-10-12T16:08:35.580Z,100382.09
2022-10-12T16:11:02.802Z,100380.42
2022-10-12T16:13:29.588Z,100378.88
2022-10-12T16:15:56.370Z,100382.93
2022-10-12T16:18:23.110Z,100382.95
2022-10-12T16:20:53.562Z,100385.98
2022-10-12T16:23:23.798Z,100386.92
2022-10-12T16:28:22.400Z,100393.48
2022-10-12T16:30:50.006Z,100396.16
2022-10-12T16:33:16.954Z,100396.58
2022-10-12T16:35:43.710Z,100398.33
2022-10-12T16:38:10.424Z,100401.34
2022-10-12T16:40:41.432Z,100402.48
2022-10-12T16:43:08.466Z,100403.02
2022-10-12T16:45:35.153Z,100405.38
2022-10-12T16:48:01.947Z,100408.05
2022-10-12T16:50:28.538Z,100409.96
2022-10-12T16:52:55.277Z,100409.80
2022-10-12T16:55:21.964Z,100411.27
2022-10-12T16:57:48.643Z,100410.80
2022-10-12T17:00:16.937Z,100407.33
2022-10-12T17:02:43.649Z,100413.70
2022-10-12T17:05:10.374Z,100411.70
2022-10-12T17:07:37.004Z,100411.70
2022-10-12T17:10:04.119Z,100409.42
2022-10-12T17:12:30.803Z,100408.47
2022-10-12T17:14:57.910Z,100408.91
2022-10-12T17:17:24.580Z,100408.36
2022-10-12T17:19:51.358Z,100405.54
2022-10-12T17:22:18.431Z,100404.41
2022-10-12T17:24:45.335Z,100407.95
2022-10-12T17:27:12.511Z,100410.41
2022-10-12T17:29:42.091Z,100409.95
2022-10-12T17:32:09.878Z,100412.90
2022-10-12T17:34:41.248Z,100411.68
2022-10-12T17:37:11.265Z,100409.85
2022-10-12T17:39:40.105Z,100411.61
2022-10-12T17:42:06.944Z,100411.66
2022-10-12T17:44:33.793Z,100413.43
2022-10-12T17:47:00.563Z,100413.88
2022-10-12T17:49:27.381Z,100417.34
2022-10-12T17:51:54.116Z,100421.35
2022-10-12T17:54:21.424Z,100422.05
2022-10-12T17:56:48.090Z,100422.84
2022-10-12T17:59:16.033Z,100421.23
2022-10-12T18:01:42.711Z,100420.77
2022-10-12T18:04:10.170Z,100422.32
2022-10-12T18:06:36.833Z,100426.57
2022-10-12T18:09:04.697Z,100428.94
2022-10-12T18:11:31.425Z,100428.77
2022-10-12T18:13:58.127Z,100428.98
2022-10-12T18:16:29.957Z,100427.73
2022-10-12T18:18:58.234Z,100425.53
2022-10-12T18:21:26.114Z,100427.39
2022-10-12T18:23:52.877Z,100429.14
2022-10-12T18:26:21.782Z,100433.42
2022-10-12T18:28:49.736Z,100435.89
2022-10-12T18:31:24.316Z,100444.95
2022-10-12T18:33:51.536Z,100441.53
2022-10-12T18:36:18.404Z,100443.62
2022-10-12T18:38:45.324Z,100445.73
2022-10-12T18:41:15.383Z,100450.12
2022-10-12T18:43:42.115Z,100450.66
2022-10-12T18:46:10.272Z,100451.23
2022-10-12T18:48:37.048Z,100453.70
2022-10-12T18:51:25.140Z,100458.10
2022-10-12T18:53:51.901Z,100447.09
2022-10-12T18:56:18.991Z,100454.27
2022-10-12T18:58:45.750Z,100457.38
2022-10-12T19:01:18.041Z,100457.04
2022-10-12T19:03:44.855Z,100458.89
2022-10-12T19:06:13.357Z,100459.52
2022-10-12T19:08:40.426Z,100460.46
2022-10-12T19:11:08.238Z,100461.20
2022-10-12T19:13:38.766Z,100462.40
2022-10-12T19:16:07.524Z,100464.29
2022-10-12T19:18:34.317Z,100465.50
2022-10-12T19:21:05.507Z,100462.95
2022-10-12T19:23:32.216Z,100465.40
2022-10-12T19:26:04.298Z,100470.91
2022-10-12T19:28:31.000Z,100473.84
2022-10-12T19:30:58.738Z,100471.92
2022-10-12T19:33:26.772Z,100471.75
2022-10-12T19:35:53.523Z,100476.05
2022-10-12T19:38:20.506Z,100476.16
2022-10-12T19:40:47.321Z,100477.02
2022-10-12T19:43:13.980Z,100475.06
2022-10-12T19:45:41.014Z,100473.27
2022-10-12T19:48:07.924Z,100479.67
2022-10-12T19:50:34.621Z,100480.16
2022-10-12T19:53:01.561Z,100481.63
2022-10-12T19:55:29.988Z,100482.05
2022-10-12T19:57:56.720Z,100482.91
2022-10-12T20:00:23.648Z,100483.59
2022-10-12T20:02:50.312Z,100482.24
2022-10-12T20:05:17.006Z,100476.64
2022-10-12T20:07:43.720Z,100484.55
2022-10-12T20:10:10.394Z,100485.67
2022-10-12T20:12:37.126Z,100484.54
2022-10-12T20:15:04.189Z,100487.95
2022-10-12T20:17:30.899Z,100487.96
2022-10-12T20:19:57.656Z,100488.34
2022-10-12T20:22:24.317Z,100485.21
2022-10-12T20:24:53.811Z,100486.06
2022-10-12T20:27:20.502Z,100485.38
2022-10-12T20:29:47.395Z,100486.95
2022-10-12T20:32:14.059Z,100486.20
2022-10-12T20:34:40.737Z,100484.86
2022-10-12T20:37:07.432Z,100485.98
2022-10-12T20:39:34.098Z,100487.55
2022-10-12T20:42:00.771Z,100492.02
2022-10-12T20:44:27.632Z,100497.63
2022-10-12T20:46:55.047Z,100497.27
2022-10-12T20:49:21.809Z,100494.91
2022-10-12T20:51:48.573Z,100497.45
2022-10-12T20:54:16.247Z,100495.38
2022-10-12T20:56:43.379Z,100493.11
2022-10-12T20:59:10.490Z,100497.23
2022-10-12T21:01:37.299Z,100496.51
2022-10-12T21:04:03.913Z,100501.66
2022-10-12T21:06:30.607Z,100498.07
2022-10-12T21:08:57.437Z,100498.35
2022-10-12T21:11:24.063Z,100494.54
2022-10-12T21:13:50.966Z,100497.67
2022-10-12T21:16:17.712Z,100493.52
2022-10-12T21:18:44.438Z,100494.15
2022-10-12T21:21:16.207Z,100498.52
2022-10-12T21:23:54.134Z,100500.66
2022-10-12T21:26:21.665Z,100499.33
2022-10-12T21:28:48.392Z,100501.53
2022-10-12T21:31:15.211Z,100502.66
2022-10-12T21:33:41.860Z,100501.52
2022-10-12T21:36:13.534Z,100502.77
2022-10-12T21:38:40.489Z,100509.34
2022-10-12T21:41:07.676Z,100505.92
2022-10-12T21:43:35.369Z,100507.10
2022-10-12T21:46:10.175Z,100506.20
2022-10-12T21:48:37.086Z,100508.23
2022-10-12T21:51:03.814Z,100504.42
2022-10-12T21:53:30.674Z,100504.10
2022-10-12T21:55:57.259Z,100502.73
2022-10-12T21:58:24.040Z,100505.43
2022-10-12T22:00:51.041Z,100504.14
2022-10-12T22:03:17.712Z,100505.55
2022-10-12T22:05:44.517Z,100510.43
2022-10-12T22:08:11.196Z,100508.80
2022-10-12T22:10:38.989Z,100508.35
2022-10-12T22:13:06.450Z,100508.23
2022-10-12T22:15:33.626Z,100510.14
2022-10-12T22:18:05.055Z,100511.90
2022-10-12T22:20:31.720Z,100511.56
2022-10-12T22:22:58.549Z,100511.98
2022-10-12T22:25:25.293Z,100511.81
2022-10-12T22:27:52.073Z,100510.81
2022-10-12T22:30:18.884Z,100511.60
2022-10-12T22:32:45.649Z,100510.47
2022-10-12T22:35:12.448Z,100509.05
2022-10-12T22:37:41.684Z,100508.90
2022-10-12T22:40:08.636Z,100506.56
2022-10-12T22:42:35.425Z,100510.14
2022-10-12T22:45:02.199Z,100508.73
2022-10-12T22:47:29.031Z,100507.39
2022-10-12T22:49:56.130Z,100508.50
2022-10-12T22:52:22.955Z,100505.88
2022-10-12T22:54:49.994Z,100506.83
2022-10-12T22:57:16.833Z,100505.77
2022-10-12T22:59:43.473Z,100509.06
2022-10-12T23:02:10.339Z,100509.69
2022-10-12T23:04:37.078Z,100510.44
2022-10-12T23:07:03.996Z,100509.68
2022-10-12T23:09:30.659Z,100507.07
2022-10-12T23:11:57.431Z,100508.32
2022-10-12T23:14:24.178Z,100509.16
2022-10-12T23:16:50.909Z,100514.13
2022-10-12T23:19:17.585Z,100511.27
2022-10-12T23:21:44.246Z,100507.15
2022-10-12T23:24:10.909Z,100507.82
2022-10-12T23:26:37.611Z,100508.11
2022-10-12T23:29:04.297Z,100507.20
2022-10-12T23:31:31.043Z,100509.20
2022-10-12T23:33:58.931Z,100513.94
2022-10-12T23:36:25.684Z,100507.78
2022-10-12T23:38:52.354Z,100505.95
2022-10-12T23:41:19.103Z,100507.21
2022-10-12T23:43:45.740Z,100512.33
2022-10-12T23:46:12.633Z,100512.25
2022-10-12T23:48:39.274Z,100513.70
2022-10-12T23:51:07.919Z,100511.15
2022-10-12T23:53:35.190Z,100504.05
2022-10-12T23:56:01.902Z,100508.64
2022-10-12T23:58:28.587Z,100509.39
